Latest Weather Observations for Coonawarra

IDS60801

Issued at 11:05 am CST Thursday 18 September 2014 (issued every 30 minutes, with the page automatically refreshed every 10 minutes)

About weather observations | Map of weather stations | Latest weather observations for SA | Other Formats
Station Details ID: 026091 Name: COONAWARRA Lat: -37.29 Lon: 140.83 Height: 57.0 m
Data from the previous 72 hours. | See also: Recent months at Coonawarra
Date/Time
CST
Temp
°C
App
Temp
°C
Dew
Point
Rel
Hum
%
Delta-T
°C
Wind Press
QNH
hPa
Press
MSL
hPa
Rain
since 9 am
mm
Dir
 
Spd
km/h
Gust
km/h
Spd
kts
Gust
kts
18/11:00am 12.3 7.7 3.8 56 3.8 SW 17 22 9 12 1025.9 1025.9 0.0
18/10:30am 12.0 7.0 4.5 60 3.4 SW 20 30 11 16 1025.9 1025.9 0.0
18/10:00am 12.3 7.1 2.4 51 4.3 SSW 19 26 10 14 1025.9 1025.9 0.0
18/09:30am 12.4 7.4 3.4 54 4.0 SW 19 26 10 14 1025.8 1025.8 0.0
18/09:00am 11.9 7.0 4.1 59 3.5 SSW 19 24 10 13 1025.9 1025.9 0.2
18/08:30am 10.6 6.8 5.6 71 2.3 WSW 15 20 8 11 1025.7 1025.7 0.2
18/08:00am 9.7 5.9 5.8 77 1.8 WSW 15 19 8 10 1025.7 1025.7 0.2
18/07:30am 8.9 5.4 5.3 78 1.6 WSW 13 17 7 9 1025.6 1025.6 0.2
18/07:00am 7.9 5.4 5.0 82 1.3 SSW 7 11 4 6 1025.2 1025.2 0.2
18/06:30am 6.0 3.3 3.9 86 0.9 W 7 9 4 5 1024.9 1024.9 0.2
18/06:00am 5.9 4.5 3.3 83 1.1 WSW 0 0 0 0 1024.6 1024.6 0.2
18/05:30am 6.2 4.8 3.6 83 1.1 CALM 0 0 0 0 1024.5 1024.5 0.2
18/05:00am 7.2 4.7 3.7 78 1.5 WSW 6 7 3 4 1024.0 1024.0 0.2
18/04:30am 7.8 4.7 3.6 75 1.8 WSW 9 13 5 7 1023.8 1023.8 0.2
18/04:00am 7.5 5.0 4.0 78 1.5 SW 6 7 3 4 1023.6 1023.6 0.2
18/03:30am 7.8 5.3 3.8 76 1.7 SSW 6 7 3 4 1023.4 1023.5 0.2
18/03:00am 7.8 4.3 3.6 75 1.8 W 11 15 6 8 1023.3 1023.4 0.2
18/02:30am 8.2 4.8 3.8 74 1.9 W 11 15 6 8 1023.4 1023.5 0.2
18/02:00am 7.6 4.5 3.6 76 1.7 W 9 11 5 6 1023.3 1023.4 0.2
18/01:30am 7.6 4.9 3.6 76 1.7 W 7 9 4 5 1023.3 1023.4 0.2
18/01:00am 7.3 4.2 3.5 77 1.6 W 9 9 5 5 1023.3 1023.4 0.2
18/12:30am 7.7 5.2 3.5 75 1.8 WSW 6 7 3 4 1023.2 1023.3 0.2
18/12:00am 7.6 4.8 3.4 75 1.8 W 7 9 4 5 1023.4 1023.5 0.2
 
Date/Time
CST
Temp
°C
App
Temp
°C
Dew
Point
Rel
Hum
%
Delta-T
°C
Wind Press
QNH
hPa
Press
MSL
hPa
Rain
since 9 am
mm
Dir
 
Spd
km/h
Gust
km/h
Spd
kts
Gust
kts
17/11:30pm 7.9 6.5 3.4 73 1.9 CALM 0 0 0 0 1023.4 1023.5 0.2
17/11:00pm 8.2 5.0 3.0 70 2.2 SW 9 11 5 6 1023.7 1023.7 0.2
17/10:30pm 8.0 4.4 3.0 71 2.1 WSW 11 13 6 7 1023.8 1023.8 0.2
17/10:00pm 8.5 5.4 3.4 70 2.2 WSW 9 9 5 5 1023.6 1023.6 0.2
17/09:30pm 8.8 6.0 3.2 68 2.4 SW 7 9 4 5 1023.4 1023.5 0.2
17/09:00pm 8.7 5.5 3.1 68 2.4 SW 9 13 5 7 1023.3 1023.4 0.2
17/08:30pm 8.1 4.2 3.4 72 2.0 WSW 13 15 7 8 1023.2 1023.3 0.2
17/08:00pm 8.5 4.8 4.6 76 1.7 WSW 13 15 7 8 1023.0 1023.1 0.2
17/07:30pm 9.3 6.6 5.5 77 1.7 WSW 9 11 5 6 1022.7 1022.8 0.2
17/07:00pm 9.9 7.1 5.0 71 2.2 WSW 9 13 5 7 1022.3 1022.4 0.2
17/06:30pm 10.0 6.3 4.4 68 2.5 SW 13 17 7 9 1021.9 1022.0 0.2
17/06:00pm 10.3 6.1 3.7 63 2.9 SW 15 20 8 11 1021.6 1021.7 0.2
17/05:30pm 11.0 6.3 2.9 57 3.5 SW 17 26 9 14 1021.3 1021.4 0.2
17/05:00pm 11.3 5.4 1.6 51 4.1 SW 22 32 12 17 1020.9 1021.0 0.2
17/04:30pm 12.4 5.4 2.2 50 4.4 SW 28 41 15 22 1020.5 1020.6 0.2
17/04:00pm 13.1 6.0 3.8 53 4.2 SW 30 44 16 24 1020.3 1020.4 0.2
17/03:41pm 12.7 5.3 2.1 48 4.6 SW 30 48 16 26 1020.0 1020.1 0.2
17/03:30pm 13.6 5.9 2.2 46 5.0 SW 32 41 17 22 1019.9 1020.0 0.2
17/03:14pm 12.9 5.7 2.9 50 4.4 SW 30 48 16 26 1019.8 1019.9 0.2
17/03:00pm 13.3 6.6 3.8 52 4.3 SW 28 39 15 21 1019.8 1019.9 0.2
17/02:30pm 13.0 6.3 3.6 53 4.2 SW 28 39 15 21 1019.5 1019.6 0.2
17/02:00pm 14.4 7.1 4.4 51 4.6 SW 32 41 17 22 1019.3 1019.4 0.2
17/01:30pm 13.6 6.6 3.9 52 4.4 SW 30 41 16 22 1019.4 1019.5 0.2
17/01:00pm 14.2 6.8 3.9 50 4.7 SW 32 50 17 27 1019.3 1019.4 0.2
17/12:58pm 13.6 6.1 3.3 49 4.6 SW 32 50 17 27 1019.4 1019.5 0.2
17/12:30pm 13.6 6.6 1.8 44 5.1 SW 28 39 15 21 1019.3 1019.4 0.2
17/12:00pm 14.2 7.1 1.2 41 5.6 SW 28 39 15 21 1019.5 1019.6 0.0
17/11:30am 13.2 5.6 0.6 42 5.3 SW 30 37 16 20 1019.5 1019.6 0.0
17/11:00am 12.6 4.5 0.0 42 5.2 SW 32 41 17 22 1019.6 1019.7 0.0
17/10:30am 12.9 4.8 0.8 43 5.1 SW 33 44 18 24 1019.4 1019.5 0.0
17/10:00am 12.6 5.2 1.6 47 4.7 SW 30 48 16 26 1019.1 1019.2 0.0
17/09:59am 12.7 5.4 2.7 50 4.4 SW 30 48 16 26 1019.2 1019.3 0.0
17/09:30am 11.7 4.2 3.6 57 3.6 SSW 32 46 17 25 1018.8 1018.9 0.0
17/09:00am 11.7 5.8 5.7 66 2.8 SW 26 35 14 19 1018.5 1018.6 -
17/08:30am 11.6 7.3 7.7 77 1.9 SW 20 30 11 16 1018.1 1018.2 -
17/08:00am 9.5 6.2 8.0 90 0.7 WSW 15 20 8 11 1017.9 1018.0 -
17/07:30am 8.1 5.4 7.2 94 0.4 W 11 13 6 7 1017.6 1017.7 -
17/07:00am 6.9 4.7 6.0 94 0.4 W 7 9 4 5 1017.2 1017.3 -
17/06:30am 6.3 4.0 5.6 95 0.3 W 7 11 4 6 1016.9 1017.0 -
17/06:00am 5.9 2.8 5.4 97 0.2 NW 11 15 6 8 1016.5 1016.5 -
17/05:30am 4.7 1.3 4.2 97 0.2 WNW 11 13 6 7 1016.3 1016.3 -
17/05:00am 5.1 1.4 4.6 97 0.2 WNW 13 15 7 8 1016.1 1016.1 -
17/04:30am 5.3 1.7 4.8 97 0.2 WNW 13 13 7 7 1015.9 1015.9 -
17/04:00am 5.9 2.8 5.4 97 0.2 WNW 11 13 6 7 1015.8 1015.8 -
17/03:30am 6.4 3.7 5.7 95 0.3 WNW 9 13 5 7 1015.7 1015.7 -
17/03:00am 7.1 4.2 6.4 95 0.3 WNW 11 13 6 7 1015.6 1015.6 0.8
17/02:30am 7.6 4.7 6.7 94 0.4 W 11 15 6 8 1015.8 1015.8 -
17/02:00am 7.7 4.9 6.8 94 0.4 W 11 15 6 8 1015.8 1015.8 -
17/01:30am 6.7 3.7 6.0 95 0.3 WNW 11 13 6 7 1016.1 1016.1 -
17/01:00am 6.8 3.8 6.1 95 0.3 NNW 11 11 6 6 1015.9 1015.9 -
17/12:30am 7.2 4.8 6.8 97 0.2 NW 9 9 5 5 1016.1 1016.1 -
17/12:00am 7.9 5.2 7.5 97 0.2 WNW 11 13 6 7 1016.1 1016.1 -
 
Date/Time
CST
Temp
°C
App
Temp
°C
Dew
Point
Rel
Hum
%
Delta-T
°C
Wind Press
QNH
hPa
Press
MSL
hPa
Rain
since 9 am
mm
Dir
 
Spd
km/h
Gust
km/h
Spd
kts
Gust
kts
16/11:30pm 8.7 5.8 8.3 97 0.2 NW 13 17 7 9 1016.1 1016.1 -
16/11:00pm 8.8 6.3 8.4 97 0.2 NW 11 13 6 7 1016.1 1016.1 -
16/10:30pm 8.6 6.4 8.0 96 0.3 NNW 9 13 5 7 1016.0 1016.0 -
16/10:00pm 7.8 5.1 7.2 96 0.3 NW 11 13 6 7 1016.0 1016.0 -
16/09:30pm 8.5 5.9 7.9 96 0.3 NW 11 13 6 7 1015.8 1015.8 -
16/09:00pm 9.3 6.9 8.5 95 0.4 WNW 11 13 6 7 1015.8 1015.8 1.0
16/08:30pm 9.8 7.5 9.0 95 0.4 WNW 11 13 6 7 1015.8 1015.8 -
16/08:00pm 9.9 8.4 9.1 95 0.4 WNW 7 9 4 5 1015.7 1015.7 -
16/07:30pm 10.3 8.5 9.5 95 0.4 WNW 9 11 5 6 1015.6 1015.6 -
16/07:00pm 10.8 8.3 9.8 93 0.5 W 13 17 7 9 1015.5 1015.5 -
16/06:30pm 11.7 8.0 7.8 77 1.9 WNW 17 20 9 11 1015.1 1015.1 -
16/06:00pm 12.9 8.9 6.6 65 3.0 W 17 24 9 13 1014.9 1014.9 -
16/05:30pm 13.5 9.3 5.9 60 3.6 WSW 17 22 9 12 1014.6 1014.6 -
16/05:00pm 14.2 9.7 6.3 59 3.8 SW 19 22 10 12 1014.3 1014.3 -
16/04:30pm 14.8 9.8 4.5 50 4.8 SW 20 26 11 14 1014.0 1014.0 -
16/04:00pm 15.6 9.6 3.4 44 5.6 SW 24 30 13 16 1013.8 1013.8 -
16/03:30pm 15.5 9.8 4.9 49 5.0 SW 24 33 13 18 1013.8 1013.8 -
16/03:00pm 16.2 10.2 5.1 47 5.3 WSW 26 33 14 18 1013.8 1013.8 -
16/02:00pm 14.8 11.7 8.7 67 3.1 SSW 15 20 8 11 1014.1 1014.1 0.0
16/01:30pm 14.8 9.7 7.8 63 3.5 WSW 24 32 13 17 1014.3 1014.3 0.0
16/01:00pm 14.0 9.9 7.7 66 3.1 WSW 19 28 10 15 1014.4 1014.4 0.0
16/12:30pm 12.4 7.2 10.3 87 1.1 WSW 28 35 15 19 1014.8 1014.8 0.0
16/12:05pm 13.8 8.2 8.6 71 2.6 WSW 28 48 15 26 1014.7 1014.7 0.0
16/12:00pm 15.7 10.9 5.4 50 4.9 SW 20 26 11 14 1014.6 1014.6 0.0
16/11:30am 16.2 12.7 7.4 56 4.4 WSW 15 20 8 11 1014.8 1014.8 0.0
16/11:00am 15.1 11.8 8.1 63 3.5 WSW 15 20 8 11 1015.0 1015.0 0.0
16/10:30am 15.2 11.3 7.3 59 3.9 SW 17 22 9 12 1015.1 1015.1 0.0
16/10:00am 14.4 10.1 6.8 60 3.7 SW 19 26 10 14 1015.5 1015.5 0.0
16/09:30am 13.6 9.1 6.8 63 3.3 SW 20 26 11 14 1015.7 1015.7 0.0
16/09:00am 13.3 9.0 6.9 65 3.1 SW 19 28 10 15 1015.7 1015.7 0.0
16/08:30am 12.4 8.7 6.3 66 2.9 SW 15 22 8 12 1015.7 1015.7 0.0
16/08:00am 10.5 8.1 6.9 78 1.7 SW 9 11 5 6 1015.5 1015.5 0.0
16/07:30am 9.6 7.1 6.6 81 1.4 W 9 11 5 6 1015.6 1015.6 0.0
16/07:00am 8.3 6.4 6.6 89 0.8 W 6 9 3 5 1015.1 1015.1 0.0
16/06:30am 6.7 3.5 5.3 91 0.6 WSW 11 13 6 7 1015.0 1015.0 0.0
16/06:00am 7.6 4.9 5.8 88 0.8 SW 9 11 5 6 1014.7 1014.7 0.0
16/05:30am 8.7 6.1 6.3 85 1.1 SW 9 11 5 6 1014.5 1014.5 0.0
16/05:00am 8.3 5.3 5.9 85 1.1 SW 11 13 6 7 1014.2 1014.2 0.0
16/04:30am 8.5 5.1 6.1 85 1.1 SW 13 15 7 8 1014.1 1014.1 0.0
16/04:00am 9.4 5.8 6.8 84 1.2 WSW 15 19 8 10 1013.8 1013.8 0.0
16/03:30am 9.5 6.5 7.6 88 0.9 SW 13 17 7 9 1013.3 1013.3 0.0
16/03:00am 9.8 6.8 7.5 85 1.1 SW 13 15 7 8 1013.1 1013.1 0.0
16/02:30am 10.9 7.2 7.8 81 1.5 SSW 17 22 9 12 1013.3 1013.3 0.0
16/02:00am 11.0 6.7 7.9 81 1.5 SSW 20 26 11 14 1013.4 1013.4 0.0
16/01:30am 10.3 6.9 7.8 84 1.2 SSW 15 20 8 11 1013.3 1013.3 0.0
16/01:00am 11.0 6.3 7.7 80 1.6 SSW 22 28 12 15 1013.4 1013.4 0.0
16/12:30am 11.4 6.4 7.9 79 1.7 SSW 24 33 13 18 1013.5 1013.5 0.0
16/12:00am 11.1 5.7 8.0 81 1.5 SSW 26 35 14 19 1013.4 1013.4 0.0
 
Date/Time
CST
Temp
°C
App
Temp
°C
Dew
Point
Rel
Hum
%
Delta-T
°C
Wind Press
QNH
hPa
Press
MSL
hPa
Rain
since 9 am
mm
Dir
 
Spd
km/h
Gust
km/h
Spd
kts
Gust
kts
15/11:30pm 11.4 6.5 8.4 82 1.5 SSW 24 33 13 18 1013.3 1013.3 0.0
15/11:00pm 11.7 6.8 8.5 81 1.6 SSW 24 32 13 17 1013.2 1013.2 0.0
15/10:30pm 12.0 7.8 8.4 78 1.8 SSW 20 28 11 15 1013.1 1013.1 0.0
15/10:00pm 11.9 7.1 8.7 81 1.6 S 24 32 13 17 1013.2 1013.2 0.0
15/09:30pm 11.6 6.1 9.2 85 1.2 S 28 39 15 21 1013.0 1013.0 0.0
15/09:00pm 11.8 6.8 9.4 85 1.2 SSW 26 35 14 19 1012.9 1012.9 0.0
15/08:30pm 12.4 6.5 9.0 80 1.7 S 30 41 16 22 1012.4 1012.4 0.0
15/08:00pm 12.5 6.2 9.1 80 1.7 S 32 41 17 22 1012.1 1012.1 0.0
15/07:30pm 12.7 7.3 9.6 81 1.6 S 28 39 15 21 1011.6 1011.6 0.0
15/07:00pm 13.0 8.0 9.7 80 1.7 S 26 35 14 19 1011.2 1011.2 0.0
15/06:30pm 13.4 8.1 9.9 79 1.8 S 28 35 15 19 1010.9 1010.9 0.0
15/06:00pm 13.4 8.2 10.1 80 1.7 S 28 39 15 21 1010.3 1010.3 0.0
15/05:30pm 14.9 10.3 11.0 77 2.1 S 26 33 14 18 1009.9 1009.9 0.0
15/05:00pm 15.8 10.9 10.1 69 3.0 S 26 35 14 19 1009.4 1009.4 0.0
15/04:30pm 16.2 11.9 10.8 70 2.9 S 24 35 13 19 1009.0 1009.0 0.0
15/04:00pm 16.8 12.8 10.6 67 3.3 SSE 22 32 12 17 1008.6 1008.6 0.0
15/03:30pm 17.4 13.5 9.6 60 4.1 SSE 20 28 11 15 1008.3 1008.3 0.0
15/03:00pm 18.2 13.6 9.5 57 4.6 S 24 32 13 17 1008.2 1008.2 0.0
15/02:30pm 17.4 13.2 9.8 61 4.0 SSE 22 32 12 17 1008.1 1008.1 0.0
15/02:00pm 17.9 13.4 10.2 60 4.1 SSE 24 33 13 18 1007.8 1007.8 0.0
15/01:30pm 18.2 13.8 10.4 60 4.2 SSE 24 35 13 19 1007.8 1007.8 0.0
15/01:00pm 18.3 14.3 10.3 59 4.3 SSE 22 32 12 17 1007.9 1007.9 0.0
15/12:30pm 17.7 13.6 10.2 61 4.0 SSE 22 32 12 17 1008.1 1008.1 0.0
15/12:00pm 18.0 14.4 10.4 61 4.1 SSE 20 32 11 17 1008.4 1008.4 0.0
15/11:30am 16.6 12.9 10.0 65 3.5 SSE 20 30 11 16 1008.7 1008.7 0.0

Other Formats:

Comma delimited format used in spreadsheet applications
http://www.bom.gov.au/fwo/IDS60801/IDS60801.94817.axf

JavaScript Object Notation format (JSON) in row-major order
http://www.bom.gov.au/fwo/IDS60801/IDS60801.94817.json